sensor_id;sensor_type;location;lat;lon;timestamp;pressure;altitude;pressure_sealevel;temperature;humidity
41250;BME280;26984;59.928;30.306;2023-04-03T00:02:19;102348.66;;;-1.38;100.00
41250;BME280;26984;59.928;30.306;2023-04-03T00:04:46;102349.56;;;-1.39;100.00
41250;BME280;26984;59.928;30.306;2023-04-03T00:07:14;102344.28;;;-1.39;100.00
41250;BME280;26984;59.928;30.306;2023-04-03T00:09:41;102337.31;;;-1.40;100.00
41250;BME280;26984;59.928;30.306;2023-04-03T00:12:09;102345.25;;;-1.40;100.00
41250;BME280;26984;59.928;30.306;2023-04-03T00:14:36;102337.78;;;-1.48;100.00
41250;BME280;26984;59.928;30.306;2023-04-03T00:17:04;102336.94;;;-1.49;100.00
41250;BME280;26984;59.928;30.306;2023-04-03T00:19:33;102342.03;;;-1.46;100.00
41250;BME280;26984;59.928;30.306;2023-04-03T00:22:01;102329.09;;;-1.50;100.00
41250;BME280;26984;59.928;30.306;2023-04-03T00:24:28;102347.41;;;-1.47;100.00
41250;BME280;26984;59.928;30.306;2023-04-03T00:26:56;102347.91;;;-1.55;100.00
41250;BME280;26984;59.928;30.306;2023-04-03T00:29:23;102328.63;;;-1.57;100.00
41250;BME280;26984;59.928;30.306;2023-04-03T00:31:51;102323.75;;;-1.63;100.00
41250;BME280;26984;59.928;30.306;2023-04-03T00:34:18;102343.16;;;-1.64;100.00
41250;BME280;26984;59.928;30.306;2023-04-03T00:36:53;102338.19;;;-1.69;100.00
41250;BME280;26984;59.928;30.306;2023-04-03T00:39:21;102338.75;;;-1.63;100.00
41250;BME280;26984;59.928;30.306;2023-04-03T00:41:48;102340.63;;;-1.80;100.00
41250;BME280;26984;59.928;30.306;2023-04-03T00:44:20;102347.06;;;-1.84;100.00
41250;BME280;26984;59.928;30.306;2023-04-03T00:46:48;102340.81;;;-1.83;100.00
41250;BME280;26984;59.928;30.306;2023-04-03T00:49:15;102340.47;;;-1.77;100.00
41250;BME280;26984;59.928;30.306;2023-04-03T00:51:43;102361.22;;;-1.71;100.00
41250;BME280;26984;59.928;30.306;2023-04-03T00:54:12;102331.69;;;-1.77;100.00
41250;BME280;26984;59.928;30.306;2023-04-03T00:56:40;102339.13;;;-1.70;100.00
41250;BME280;26984;59.928;30.306;2023-04-03T00:59:09;102334.88;;;-1.58;100.00
41250;BME280;26984;59.928;30.306;2023-04-03T01:01:38;102333.38;;;-1.76;100.00
41250;BME280;26984;59.928;30.306;2023-04-03T01:04:24;102335.47;;;-1.81;100.00
41250;BME280;26984;59.928;30.306;2023-04-03T01:06:54;102331.88;;;-1.80;100.00
41250;BME280;26984;59.928;30.306;2023-04-03T01:09:24;102332.41;;;-1.75;100.00
41250;BME280;26984;59.928;30.306;2023-04-03T01:11:52;102325.31;;;-2.03;100.00
41250;BME280;26984;59.928;30.306;2023-04-03T01:14:19;102320.28;;;-1.92;100.00
41250;BME280;26984;59.928;30.306;2023-04-03T01:16:51;102324.69;;;-1.93;100.00
41250;BME280;26984;59.928;30.306;2023-04-03T01:19:19;102333.00;;;-1.84;100.00
41250;BME280;26984;59.928;30.306;2023-04-03T01:21:55;102333.25;;;-1.75;100.00
41250;BME280;26984;59.928;30.306;2023-04-03T01:24:33;102330.25;;;-1.69;100.00
41250;BME280;26984;59.928;30.306;2023-04-03T01:27:04;102322.03;;;-1.78;100.00
41250;BME280;26984;59.928;30.306;2023-04-03T01:29:32;102318.47;;;-1.77;100.00
41250;BME280;26984;59.928;30.306;2023-04-03T01:32:01;102330.19;;;-1.81;100.00
41250;BME280;26984;59.928;30.306;2023-04-03T01:34:30;102326.47;;;-1.93;100.00
41250;BME280;26984;59.928;30.306;2023-04-03T01:36:58;102325.44;;;-1.90;100.00
41250;BME280;26984;59.928;30.306;2023-04-03T01:39:26;102326.41;;;-1.91;100.00
41250;BME280;26984;59.928;30.306;2023-04-03T01:41:53;102323.66;;;-1.90;100.00
41250;BME280;26984;59.928;30.306;2023-04-03T01:44:33;102319.22;;;-1.89;100.00
41250;BME280;26984;59.928;30.306;2023-04-03T01:47:02;102321.59;;;-1.85;100.00
41250;BME280;26984;59.928;30.306;2023-04-03T01:49:32;102321.38;;;-1.82;100.00
41250;BME280;26984;59.928;30.306;2023-04-03T01:52:00;102322.31;;;-1.83;100.00
41250;BME280;26984;59.928;30.306;2023-04-03T01:54:27;102327.97;;;-1.75;100.00
41250;BME280;26984;59.928;30.306;2023-04-03T01:56:55;102333.00;;;-1.70;100.00
41250;BME280;26984;59.928;30.306;2023-04-03T01:59:23;102326.38;;;-1.63;100.00
41250;BME280;26984;59.928;30.306;2023-04-03T02:01:51;102313.66;;;-1.71;100.00
41250;BME280;26984;59.928;30.306;2023-04-03T02:04:20;102328.47;;;-1.82;100.00
41250;BME280;26984;59.928;30.306;2023-04-03T02:06:47;102329.97;;;-1.93;100.00
41250;BME280;26984;59.928;30.306;2023-04-03T02:09:15;102341.41;;;-1.78;100.00
41250;BME280;26984;59.928;30.306;2023-04-03T02:11:42;102322.63;;;-1.87;100.00
41250;BME280;26984;59.928;30.306;2023-04-03T02:14:10;102336.84;;;-2.04;100.00
41250;BME280;26984;59.928;30.306;2023-04-03T02:16:37;102336.19;;;-2.08;100.00
41250;BME280;26984;59.928;30.306;2023-04-03T02:19:05;102334.69;;;-1.98;100.00
41250;BME280;26984;59.928;30.306;2023-04-03T02:21:34;102324.69;;;-1.93;100.00
41250;BME280;26984;59.928;30.306;2023-04-03T02:24:02;102342.25;;;-1.91;100.00
41250;BME280;26984;59.928;30.306;2023-04-03T02:26:29;102322.03;;;-2.07;100.00
41250;BME280;26984;59.928;30.306;2023-04-03T02:28:57;102319.31;;;-2.05;100.00
41250;BME280;26984;59.928;30.306;2023-04-03T02:31:24;102329.69;;;-2.02;100.00
41250;BME280;26984;59.928;30.306;2023-04-03T02:33:52;102316.00;;;-2.09;100.00
41250;BME280;26984;59.928;30.306;2023-04-03T02:36:20;102312.22;;;-2.19;100.00
41250;BME280;26984;59.928;30.306;2023-04-03T02:38:54;102318.28;;;-2.03;100.00
41250;BME280;26984;59.928;30.306;2023-04-03T02:41:22;102333.84;;;-1.98;100.00
41250;BME280;26984;59.928;30.306;2023-04-03T02:43:51;102320.44;;;-1.95;100.00
41250;BME280;26984;59.928;30.306;2023-04-03T02:46:19;102318.38;;;-1.90;100.00
41250;BME280;26984;59.928;30.306;2023-04-03T02:48:46;102318.53;;;-1.93;100.00
41250;BME280;26984;59.928;30.306;2023-04-03T02:51:14;102335.53;;;-1.97;100.00
41250;BME280;26984;59.928;30.306;2023-04-03T02:53:42;102321.00;;;-2.04;100.00
41250;BME280;26984;59.928;30.306;2023-04-03T02:56:16;102323.75;;;-2.06;100.00
41250;BME280;26984;59.928;30.306;2023-04-03T02:58:44;102327.31;;;-2.07;100.00
41250;BME280;26984;59.928;30.306;2023-04-03T03:01:12;102311.47;;;-2.07;100.00
41250;BME280;26984;59.928;30.306;2023-04-03T03:03:40;102317.34;;;-2.02;100.00
41250;BME280;26984;59.928;30.306;2023-04-03T03:06:08;102330.44;;;-2.00;100.00
41250;BME280;26984;59.928;30.306;2023-04-03T03:08:36;102315.00;;;-1.92;100.00
41250;BME280;26984;59.928;30.306;2023-04-03T03:11:04;102328.09;;;-1.90;100.00
41250;BME280;26984;59.928;30.306;2023-04-03T03:13:34;102322.03;;;-1.93;100.00
41250;BME280;26984;59.928;30.306;2023-04-03T03:16:01;102326.28;;;-1.90;100.00
41250;BME280;26984;59.928;30.306;2023-04-03T03:18:29;102331.03;;;-1.81;100.00
41250;BME280;26984;59.928;30.306;2023-04-03T03:20:57;102318.19;;;-1.87;100.00
41250;BME280;26984;59.928;30.306;2023-04-03T03:23:25;102319.69;;;-1.83;100.00
41250;BME280;26984;59.928;30.306;2023-04-03T03:25:54;102321.66;;;-1.86;100.00
41250;BME280;26984;59.928;30.306;2023-04-03T03:28:22;102316.75;;;-1.93;100.00
41250;BME280;26984;59.928;30.306;2023-04-03T03:30:52;102323.00;;;-1.94;100.00
41250;BME280;26984;59.928;30.306;2023-04-03T03:33:20;102321.78;;;-2.02;100.00
41250;BME280;26984;59.928;30.306;2023-04-03T03:35:48;102353.94;;;-1.96;100.00
41250;BME280;26984;59.928;30.306;2023-04-03T03:38:15;102324.88;;;-1.96;100.00
41250;BME280;26984;59.928;30.306;2023-04-03T03:40:43;102325.91;;;-1.98;100.00
41250;BME280;26984;59.928;30.306;2023-04-03T03:43:11;102337.63;;;-2.02;100.00
41250;BME280;26984;59.928;30.306;2023-04-03T03:45:38;102341.59;;;-1.95;100.00
41250;BME280;26984;59.928;30.306;2023-04-03T03:48:07;102341.84;;;-2.00;100.00
41250;BME280;26984;59.928;30.306;2023-04-03T03:50:35;102330.91;;;-2.08;100.00
41250;BME280;26984;59.928;30.306;2023-04-03T03:53:02;102338.94;;;-2.09;100.00
41250;BME280;26984;59.928;30.306;2023-04-03T03:55:30;102320.03;;;-2.03;100.00
41250;BME280;26984;59.928;30.306;2023-04-03T03:57:58;102330.34;;;-1.99;100.00
41250;BME280;26984;59.928;30.306;2023-04-03T04:00:27;102331.56;;;-2.04;100.00
41250;BME280;26984;59.928;30.306;2023-04-03T04:02:56;102333.06;;;-2.00;100.00
41250;BME280;26984;59.928;30.306;2023-04-03T04:05:26;102323.28;;;-1.84;100.00
41250;BME280;26984;59.928;30.306;2023-04-03T04:07:54;102318.38;;;-1.90;100.00
41250;BME280;26984;59.928;30.306;2023-04-03T04:10:23;102330.53;;;-1.87;100.00
41250;BME280;26984;59.928;30.306;2023-04-03T04:12:51;102338.94;;;-1.81;100.00
41250;BME280;26984;59.928;30.306;2023-04-03T04:15:22;102329.13;;;-1.79;100.00
41250;BME280;26984;59.928;30.306;2023-04-03T04:17:52;102324.00;;;-1.67;100.00
41250;BME280;26984;59.928;30.306;2023-04-03T04:20:20;102334.13;;;-1.74;100.00
41250;BME280;26984;59.928;30.306;2023-04-03T04:22:49;102318.72;;;-1.82;100.00
41250;BME280;26984;59.928;30.306;2023-04-03T04:25:18;102320.06;;;-1.75;100.00
41250;BME280;26984;59.928;30.306;2023-04-03T04:27:46;102309.22;;;-1.70;100.00
41250;BME280;26984;59.928;30.306;2023-04-03T04:30:15;102328.19;;;-1.63;100.00
41250;BME280;26984;59.928;30.306;2023-04-03T04:32:44;102321.84;;;-1.61;100.00
41250;BME280;26984;59.928;30.306;2023-04-03T04:35:14;102330.72;;;-1.62;100.00
41250;BME280;26984;59.928;30.306;2023-04-03T04:37:43;102316.97;;;-1.67;100.00
41250;BME280;26984;59.928;30.306;2023-04-03T04:40:13;102317.13;;;-1.56;100.00
41250;BME280;26984;59.928;30.306;2023-04-03T04:42:41;102319.59;;;-1.53;100.00
41250;BME280;26984;59.928;30.306;2023-04-03T04:45:09;102323.72;;;-1.49;100.00
41250;BME280;26984;59.928;30.306;2023-04-03T04:47:39;102313.69;;;-1.43;100.00
41250;BME280;26984;59.928;30.306;2023-04-03T04:50:07;102315.66;;;-1.33;100.00
41250;BME280;26984;59.928;30.306;2023-04-03T04:52:35;102307.84;;;-1.34;100.00
41250;BME280;26984;59.928;30.306;2023-04-03T04:55:03;102315.94;;;-1.23;100.00
41250;BME280;26984;59.928;30.306;2023-04-03T04:57:32;102323.22;;;-1.27;100.00
41250;BME280;26984;59.928;30.306;2023-04-03T05:00:01;102317.81;;;-1.25;100.00
41250;BME280;26984;59.928;30.306;2023-04-03T05:02:29;102317.13;;;-1.14;100.00
41250;BME280;26984;59.928;30.306;2023-04-03T05:04:57;102315.50;;;-1.03;100.00
41250;BME280;26984;59.928;30.306;2023-04-03T05:07:28;102311.06;;;-1.02;100.00
41250;BME280;26984;59.928;30.306;2023-04-03T05:09:57;102315.19;;;-0.98;100.00
41250;BME280;26984;59.928;30.306;2023-04-03T05:12:24;102313.09;;;-0.93;100.00
41250;BME280;26984;59.928;30.306;2023-04-03T05:14:58;102312.75;;;-0.74;100.00
41250;BME280;26984;59.928;30.306;2023-04-03T05:17:31;102324.47;;;-0.78;100.00
41250;BME280;26984;59.928;30.306;2023-04-03T05:20:14;102317.06;;;-0.73;100.00
41250;BME280;26984;59.928;30.306;2023-04-03T05:22:43;102309.47;;;-0.65;100.00
41250;BME280;26984;59.928;30.306;2023-04-03T05:25:14;102312.44;;;-0.69;100.00
41250;BME280;26984;59.928;30.306;2023-04-03T05:27:56;102313.19;;;-0.67;100.00
41250;BME280;26984;59.928;30.306;2023-04-03T05:30:26;102317.22;;;-0.62;100.00
41250;BME280;26984;59.928;30.306;2023-04-03T05:32:54;102329.00;;;-0.40;100.00
41250;BME280;26984;59.928;30.306;2023-04-03T05:35:32;102315.56;;;-0.37;100.00
41250;BME280;26984;59.928;30.306;2023-04-03T05:38:11;102313.97;;;-0.40;100.00
41250;BME280;26984;59.928;30.306;2023-04-03T05:40:41;102315.75;;;-0.53;100.00
41250;BME280;26984;59.928;30.306;2023-04-03T05:43:17;102317.59;;;-0.68;100.00
41250;BME280;26984;59.928;30.306;2023-04-03T05:45:58;102326.75;;;-0.59;100.00
41250;BME280;26984;59.928;30.306;2023-04-03T05:48:41;102323.78;;;-0.55;100.00
41250;BME280;26984;59.928;30.306;2023-04-03T05:51:18;102319.97;;;-0.51;100.00
41250;BME280;26984;59.928;30.306;2023-04-03T05:53:49;102311.50;;;-0.43;100.00
41250;BME280;26984;59.928;30.306;2023-04-03T05:56:21;102318.72;;;-0.45;100.00
41250;BME280;26984;59.928;30.306;2023-04-03T05:58:53;102317.97;;;-0.60;100.00
41250;BME280;26984;59.928;30.306;2023-04-03T06:01:50;102327.72;;;-0.60;100.00
41250;BME280;26984;59.928;30.306;2023-04-03T06:04:25;102313.97;;;-0.53;100.00
41250;BME280;26984;59.928;30.306;2023-04-03T06:06:56;102300.19;;;-0.32;100.00
41250;BME280;26984;59.928;30.306;2023-04-03T06:09:28;102332.50;;;-0.40;100.00
41250;BME280;26984;59.928;30.306;2023-04-03T06:12:00;102316.72;;;-0.41;100.00
41250;BME280;26984;59.928;30.306;2023-04-03T06:14:30;102322.47;;;-0.35;100.00
41250;BME280;26984;59.928;30.306;2023-04-03T06:17:24;102331.03;;;-0.18;100.00
41250;BME280;26984;59.928;30.306;2023-04-03T06:23:06;102325.84;;;-0.33;100.00
41250;BME280;26984;59.928;30.306;2023-04-03T06:25:39;102320.00;;;-0.25;100.00
41250;BME280;26984;59.928;30.306;2023-04-03T06:28:08;102322.13;;;-0.30;100.00
41250;BME280;26984;59.928;30.306;2023-04-03T06:30:36;102335.78;;;-0.36;100.00
41250;BME280;26984;59.928;30.306;2023-04-03T06:39:00;102320.00;;;-0.25;100.00
41250;BME280;26984;59.928;30.306;2023-04-03T06:41:31;102319.72;;;-0.20;100.00
41250;BME280;26984;59.928;30.306;2023-04-03T06:44:04;102316.22;;;-0.21;100.00
41250;BME280;26984;59.928;30.306;2023-04-03T06:46:34;102325.09;;;-0.22;100.00
41250;BME280;26984;59.928;30.306;2023-04-03T06:49:01;102325.09;;;-0.22;100.00
41250;BME280;26984;59.928;30.306;2023-04-03T06:51:29;102339.09;;;-0.20;100.00
41250;BME280;26984;59.928;30.306;2023-04-03T06:53:59;102325.75;;;-0.31;100.00
41250;BME280;26984;59.928;30.306;2023-04-03T06:56:27;102343.44;;;-0.19;100.00
41250;BME280;26984;59.928;30.306;2023-04-03T06:58:55;102336.97;;;-0.15;100.00
41250;BME280;26984;59.928;30.306;2023-04-03T07:01:24;102338.69;;;-0.14;100.00
41250;BME280;26984;59.928;30.306;2023-04-03T07:03:52;102330.84;;;-0.15;100.00
41250;BME280;26984;59.928;30.306;2023-04-03T07:06:19;102335.81;;;-0.11;100.00
41250;BME280;26984;59.928;30.306;2023-04-03T07:08:47;102325.00;;;-0.08;100.00
41250;BME280;26984;59.928;30.306;2023-04-03T07:11:16;102335.59;;;-0.20;100.00
41250;BME280;26984;59.928;30.306;2023-04-03T07:13:44;102334.88;;;-0.10;100.00
41250;BME280;26984;59.928;30.306;2023-04-03T07:16:11;102341.44;;;0.10;100.00
41250;BME280;26984;59.928;30.306;2023-04-03T07:19:18;102336.47;;;0.18;100.00
41250;BME280;26984;59.928;30.306;2023-04-03T07:21:49;102341.94;;;0.28;100.00
41250;BME280;26984;59.928;30.306;2023-04-03T07:24:46;102347.75;;;0.46;100.00
41250;BME280;26984;59.928;30.306;2023-04-03T07:30:28;102332.44;;;0.75;100.00
41250;BME280;26984;59.928;30.306;2023-04-03T07:32:55;102337.66;;;0.64;100.00
41250;BME280;26984;59.928;30.306;2023-04-03T07:35:23;102336.63;;;0.54;100.00
41250;BME280;26984;59.928;30.306;2023-04-03T07:37:52;102336.72;;;0.52;100.00
41250;BME280;26984;59.928;30.306;2023-04-03T07:40:45;102345.72;;;0.62;100.00
41250;BME280;26984;59.928;30.306;2023-04-03T07:43:12;102334.38;;;0.60;100.00
41250;BME280;26984;59.928;30.306;2023-04-03T07:45:42;102342.22;;;0.62;100.00
41250;BME280;26984;59.928;30.306;2023-04-03T07:48:10;102345.59;;;0.64;100.00
41250;BME280;26984;59.928;30.306;2023-04-03T07:50:39;102341.69;;;0.69;100.00
41250;BME280;26984;59.928;30.306;2023-04-03T07:53:07;102348.56;;;0.72;100.00
41250;BME280;26984;59.928;30.306;2023-04-03T07:55:35;102343.50;;;0.56;100.00
41250;BME280;26984;59.928;30.306;2023-04-03T07:58:08;102353.13;;;0.70;100.00
41250;BME280;26984;59.928;30.306;2023-04-03T08:00:37;102342.50;;;0.83;100.00
41250;BME280;26984;59.928;30.306;2023-04-03T08:11:46;102354.47;;;1.12;100.00
41250;BME280;26984;59.928;30.306;2023-04-03T08:14:20;102347.72;;;1.08;100.00
41250;BME280;26984;59.928;30.306;2023-04-03T08:17:02;102386.91;;;1.05;100.00
41250;BME280;26984;59.928;30.306;2023-04-03T08:19:31;102355.63;;;0.97;100.00
41250;BME280;26984;59.928;30.306;2023-04-03T08:25:12;102357.72;;;0.68;100.00
41250;BME280;26984;59.928;30.306;2023-04-03T08:27:45;102356.06;;;0.78;100.00
41250;BME280;26984;59.928;30.306;2023-04-03T08:30:13;102361.34;;;0.91;100.00
41250;BME280;26984;59.928;30.306;2023-04-03T08:32:40;102352.91;;;0.86;100.00
41250;BME280;26984;59.928;30.306;2023-04-03T08:35:09;102360.84;;;0.86;100.00
41250;BME280;26984;59.928;30.306;2023-04-03T08:37:37;102364.78;;;0.80;100.00
41250;BME280;26984;59.928;30.306;2023-04-03T08:40:14;102379.84;;;0.80;100.00
41250;BME280;26984;59.928;30.306;2023-04-03T08:42:52;102361.78;;;0.85;100.00
41250;BME280;26984;59.928;30.306;2023-04-03T08:45:25;102362.72;;;0.97;100.00
41250;BME280;26984;59.928;30.306;2023-04-03T08:47:57;102364.38;;;1.10;100.00
41250;BME280;26984;59.928;30.306;2023-04-03T08:50:40;102358.66;;;1.04;100.00
41250;BME280;26984;59.928;30.306;2023-04-03T08:53:10;102353.41;;;1.15;100.00
41250;BME280;26984;59.928;30.306;2023-04-03T08:55:40;102366.91;;;1.12;100.00
41250;BME280;26984;59.928;30.306;2023-04-03T08:58:11;102372.28;;;1.23;100.00
41250;BME280;26984;59.928;30.306;2023-04-03T09:00:41;102357.38;;;1.33;100.00
41250;BME280;26984;59.928;30.306;2023-04-03T09:03:11;102360.06;;;1.20;100.00
41250;BME280;26984;59.928;30.306;2023-04-03T09:05:40;102379.00;;;1.16;100.00
41250;BME280;26984;59.928;30.306;2023-04-03T09:08:12;102373.19;;;1.11;100.00
41250;BME280;26984;59.928;30.306;2023-04-03T09:10:41;102367.34;;;1.06;100.00
41250;BME280;26984;59.928;30.306;2023-04-03T09:13:12;102360.59;;;1.26;100.00
41250;BME280;26984;59.928;30.306;2023-04-03T09:15:42;102368.97;;;1.32;100.00
41250;BME280;26984;59.928;30.306;2023-04-03T09:18:12;102360.75;;;1.11;100.00
41250;BME280;26984;59.928;30.306;2023-04-03T09:20:43;102367.41;;;0.93;100.00
41250;BME280;26984;59.928;30.306;2023-04-03T09:23:14;102360.22;;;1.06;100.00
41250;BME280;26984;59.928;30.306;2023-04-03T09:25:43;102371.47;;;1.10;100.00
41250;BME280;26984;59.928;30.306;2023-04-03T09:28:12;102362.91;;;1.30;100.00
41250;BME280;26984;59.928;30.306;2023-04-03T09:30:39;102373.69;;;1.40;100.00
41250;BME280;26984;59.928;30.306;2023-04-03T09:33:07;102377.19;;;1.40;100.00
41250;BME280;26984;59.928;30.306;2023-04-03T09:35:37;102363.13;;;1.51;100.00
41250;BME280;26984;59.928;30.306;2023-04-03T09:38:14;102374.47;;;1.53;100.00
41250;BME280;26984;59.928;30.306;2023-04-03T09:40:43;102364.47;;;1.57;100.00
41250;BME280;26984;59.928;30.306;2023-04-03T09:43:23;102363.38;;;1.59;100.00
41250;BME280;26984;59.928;30.306;2023-04-03T09:45:51;102370.63;;;1.57;100.00
41250;BME280;26984;59.928;30.306;2023-04-03T09:48:19;102364.19;;;1.49;100.00
41250;BME280;26984;59.928;30.306;2023-04-03T09:50:54;102368.78;;;1.47;100.00
41250;BME280;26984;59.928;30.306;2023-04-03T09:56:18;102360.88;;;1.34;100.00
41250;BME280;26984;59.928;30.306;2023-04-03T09:58:49;102368.78;;;1.23;100.00
41250;BME280;26984;59.928;30.306;2023-04-03T10:01:22;102377.38;;;1.26;100.00
41250;BME280;26984;59.928;30.306;2023-04-03T10:04:02;102366.34;;;1.19;100.00
41250;BME280;26984;59.928;30.306;2023-04-03T10:06:30;102369.66;;;1.34;100.00
41250;BME280;26984;59.928;30.306;2023-04-03T10:08:58;102380.41;;;1.57;100.00
41250;BME280;26984;59.928;30.306;2023-04-03T10:11:26;102377.25;;;1.52;100.00
41250;BME280;26984;59.928;30.306;2023-04-03T10:13:57;102375.44;;;1.52;100.00
41250;BME280;26984;59.928;30.306;2023-04-03T10:16:27;102374.41;;;1.66;100.00
41250;BME280;26984;59.928;30.306;2023-04-03T10:21:39;102382.78;;;1.84;99.88
41250;BME280;26984;59.928;30.306;2023-04-03T10:24:10;102378.44;;;1.83;100.00
41250;BME280;26984;59.928;30.306;2023-04-03T10:26:41;102388.13;;;1.95;100.00
41250;BME280;26984;59.928;30.306;2023-04-03T10:29:18;102382.16;;;1.80;98.71
41250;BME280;26984;59.928;30.306;2023-04-03T10:31:50;102376.75;;;1.82;99.55
41250;BME280;26984;59.928;30.306;2023-04-03T10:34:21;102377.97;;;1.89;98.59
41250;BME280;26984;59.928;30.306;2023-04-03T10:36:51;102365.03;;;1.96;98.92
41250;BME280;26984;59.928;30.306;2023-04-03T10:39:21;102381.50;;;2.01;99.16
41250;BME280;26984;59.928;30.306;2023-04-03T10:41:56;102373.41;;;2.02;100.00
41250;BME280;26984;59.928;30.306;2023-04-03T10:44:30;102367.75;;;2.07;99.06
41250;BME280;26984;59.928;30.306;2023-04-03T10:47:00;102381.06;;;2.18;100.00
41250;BME280;26984;59.928;30.306;2023-04-03T10:49:33;102373.22;;;2.28;100.00
41250;BME280;26984;59.928;30.306;2023-04-03T10:52:06;102362.81;;;2.13;98.95
41250;BME280;26984;59.928;30.306;2023-04-03T10:54:39;102373.53;;;2.01;100.00
41250;BME280;26984;59.928;30.306;2023-04-03T10:57:09;102365.53;;;1.89;100.00
41250;BME280;26984;59.928;30.306;2023-04-03T10:59:40;102369.69;;;2.16;100.00
41250;BME280;26984;59.928;30.306;2023-04-03T11:02:11;102362.22;;;2.21;100.00
41250;BME280;26984;59.928;30.306;2023-04-03T11:04:43;102369.69;;;2.16;100.00
41250;BME280;26984;59.928;30.306;2023-04-03T11:07:12;102369.69;;;2.27;100.00
41250;BME280;26984;59.928;30.306;2023-04-03T11:09:43;102377.94;;;2.35;100.00
41250;BME280;26984;59.928;30.306;2023-04-03T11:12:13;102375.13;;;2.48;100.00
41250;BME280;26984;59.928;30.306;2023-04-03T11:14:43;102390.16;;;2.49;99.12
41250;BME280;26984;59.928;30.306;2023-04-03T11:17:14;102390.03;;;2.28;98.85
41250;BME280;26984;59.928;30.306;2023-04-03T11:19:45;102380.09;;;2.19;100.00
41250;BME280;26984;59.928;30.306;2023-04-03T11:22:16;102378.25;;;2.20;100.00
41250;BME280;26984;59.928;30.306;2023-04-03T11:24:51;102379.94;;;2.09;100.00
41250;BME280;26984;59.928;30.306;2023-04-03T11:27:22;102378.03;;;2.11;100.00
41250;BME280;26984;59.928;30.306;2023-04-03T11:29:53;102386.69;;;2.02;100.00
41250;BME280;26984;59.928;30.306;2023-04-03T11:32:27;102378.09;;;1.87;100.00
41250;BME280;26984;59.928;30.306;2023-04-03T11:35:00;102389.47;;;1.89;100.00
41250;BME280;26984;59.928;30.306;2023-04-03T11:37:29;102384.47;;;1.85;100.00
41250;BME280;26984;59.928;30.306;2023-04-03T11:39:59;102387.09;;;1.74;100.00
41250;BME280;26984;59.928;30.306;2023-04-03T11:42:30;102381.94;;;1.83;100.00
41250;BME280;26984;59.928;30.306;2023-04-03T11:47:48;102379.25;;;1.72;100.00
41250;BME280;26984;59.928;30.306;2023-04-03T11:53:11;102405.16;;;1.57;100.00
41250;BME280;26984;59.928;30.306;2023-04-03T11:55:52;102380.03;;;1.50;100.00
41250;BME280;26984;59.928;30.306;2023-04-03T11:58:21;102380.81;;;1.39;100.00
41250;BME280;26984;59.928;30.306;2023-04-03T12:00:55;102384.94;;;1.43;100.00
41250;BME280;26984;59.928;30.306;2023-04-03T12:09:10;102362.69;;;1.33;100.00
41250;BME280;26984;59.928;30.306;2023-04-03T12:12:27;102374.59;;;1.28;100.00
41250;BME280;26984;59.928;30.306;2023-04-03T12:15:11;102380.59;;;1.42;100.00
41250;BME280;26984;59.928;30.306;2023-04-03T12:17:48;102367.19;;;1.44;100.00
41250;BME280;26984;59.928;30.306;2023-04-03T12:23:08;102365.28;;;1.22;100.00
41250;BME280;26984;59.928;30.306;2023-04-03T12:25:53;102360.94;;;1.21;100.00
41250;BME280;26984;59.928;30.306;2023-04-03T12:28:30;102368.13;;;1.32;100.00
41250;BME280;26984;59.928;30.306;2023-04-03T12:31:13;102357.00;;;1.38;100.00
41250;BME280;26984;59.928;30.306;2023-04-03T12:33:57;102363.34;;;1.48;100.00
41250;BME280;26984;59.928;30.306;2023-04-03T12:36:30;102374.72;;;1.50;100.00
41250;BME280;26984;59.928;30.306;2023-04-03T12:39:06;102365.94;;;1.37;100.00
41250;BME280;26984;59.928;30.306;2023-04-03T12:41:41;102366.78;;;1.37;100.00
41250;BME280;26984;59.928;30.306;2023-04-03T12:44:17;102366.69;;;1.39;100.00
41250;BME280;26984;59.928;30.306;2023-04-03T12:46:50;102369.44;;;1.37;100.00
41250;BME280;26984;59.928;30.306;2023-04-03T12:49:30;102380.66;;;1.30;100.00
41250;BME280;26984;59.928;30.306;2023-04-03T12:52:01;102367.59;;;1.27;100.00
41250;BME280;26984;59.928;30.306;2023-04-03T12:54:30;102375.34;;;1.30;100.00
41250;BME280;26984;59.928;30.306;2023-04-03T12:57:24;102370.16;;;1.28;100.00
41250;BME280;26984;59.928;30.306;2023-04-03T12:59:52;102366.00;;;1.24;100.00
41250;BME280;26984;59.928;30.306;2023-04-03T13:02:23;102371.09;;;1.27;100.00
41250;BME280;26984;59.928;30.306;2023-04-03T13:05:05;102371.22;;;1.26;100.00
41250;BME280;26984;59.928;30.306;2023-04-03T13:07:33;102378.91;;;1.17;100.00
41250;BME280;26984;59.928;30.306;2023-04-03T13:10:13;102373.88;;;1.26;100.00
41250;BME280;26984;59.928;30.306;2023-04-03T13:12:51;102372.94;;;1.38;100.00
41250;BME280;26984;59.928;30.306;2023-04-03T13:15:20;102387.81;;;1.40;100.00
41250;BME280;26984;59.928;30.306;2023-04-03T13:17:48;102384.03;;;1.32;100.00
41250;BME280;26984;59.928;30.306;2023-04-03T13:20:19;102381.38;;;1.32;100.00
41250;BME280;26984;59.928;30.306;2023-04-03T13:22:49;102383.97;;;1.20;100.00
41250;BME280;26984;59.928;30.306;2023-04-03T13:25:27;102392.81;;;1.21;100.00
41250;BME280;26984;59.928;30.306;2023-04-03T13:27:58;102382.81;;;1.25;100.00
41250;BME280;26984;59.928;30.306;2023-04-03T13:30:28;102383.16;;;1.31;100.00
41250;BME280;26984;59.928;30.306;2023-04-03T13:32:56;102372.06;;;1.26;100.00
41250;BME280;26984;59.928;30.306;2023-04-03T13:35:32;102378.91;;;1.17;100.00
41250;BME280;26984;59.928;30.306;2023-04-03T13:38:03;102372.84;;;1.15;100.00
41250;BME280;26984;59.928;30.306;2023-04-03T13:40:32;102375.09;;;1.09;100.00